Terre Haute, Indiana
Current Conditions -  °F | °C
As of 8:53 PM on Monday 24 Nov 2014 (Local Time) from KHUF Reporting Station
Overcast Overcast  
Wind Chill:   Ceiling: 3100
Heat Index:   Visibility: 10mi
Dew Point: -2°   Wind: 8mph
Humidity: 70%   Direction: 250°WSW
Pressure: 29.9"   Gusts: NA
Location:  39.47°N, 87.41°W
Report Text: KHUF 250153Z 25007KT 10SM BKN031 OVC036 03/M02 A2990 RMK AO2 SLP128 T00331017
Loading
Personal Weather Stations






























Interactive Weather Map New forecast layout! Learn more

10-Day Weather Forecast

Advertisements
Track Severe Weather on mobile